Terminal Aerodrome Forecast
Issued by NWS

Home | Current Version | Previous Version | Text Only | Print | Product List | Glossary On
Versions: 1 2 3 4 5 6 7 8 9 10 11 12 13 14 15 16 17 18 19
000
FTAK31 PAJN 280600 AAA
TAFAJN
TAF AMD
PAJN 280617Z 2806/2906 08007KT P6SM VCSH FEW004 BKN030 OVC050
      TEMPO 2806/2810 5SM -RA BR
     FM281000 09004KT 5SM BCFG SCT003 OVC060
     FM281800 10008KT P6SM VCSH SCT030 OVC060
     FM290000 09006KT P6SM -RA BKN030 OVC050=

USA.gov is the U.S. government's official web portal to all federal, state and local government web resources and services.